createdAt,value
2018-04-17T00:02:15.156Z,12.70
2018-04-17T00:04:41.931Z,12.70
2018-04-17T00:07:08.654Z,12.70
2018-04-17T00:09:35.341Z,12.60
2018-04-17T00:12:02.006Z,12.60
2018-04-17T00:14:28.678Z,12.50
2018-04-17T00:16:55.378Z,12.40
2018-04-17T00:19:22.042Z,12.30
2018-04-17T00:24:49.579Z,12.20
2018-04-17T00:27:16.672Z,12.10
2018-04-17T00:29:43.651Z,12.10
2018-04-17T00:32:10.562Z,12.00
2018-04-17T00:34:37.476Z,11.90
2018-04-17T00:37:04.459Z,11.90
2018-04-17T00:39:32.039Z,11.80
2018-04-17T00:41:59.620Z,11.80
2018-04-17T00:44:26.419Z,11.80
2018-04-17T00:46:53.350Z,11.70
2018-04-17T00:49:20.385Z,11.70
2018-04-17T00:51:47.218Z,11.70
2018-04-17T00:54:22.232Z,11.70
2018-04-17T00:56:49.154Z,11.60
2018-04-17T00:59:16.584Z,11.60
2018-04-17T01:01:44.204Z,11.50
2018-04-17T01:04:11.624Z,11.60
2018-04-17T01:06:39.072Z,11.70
2018-04-17T01:09:06.469Z,11.80
2018-04-17T01:11:33.114Z,11.80
2018-04-17T01:13:59.794Z,11.90
2018-04-17T01:16:26.464Z,11.90
2018-04-17T01:18:53.134Z,11.90
2018-04-17T01:21:19.804Z,12.00
2018-04-17T01:23:46.465Z,12.00
2018-04-17T01:26:13.164Z,11.90
2018-04-17T01:28:39.831Z,11.80
2018-04-17T01:31:07.244Z,11.90
2018-04-17T01:33:33.923Z,11.90
2018-04-17T01:36:01.339Z,11.90
2018-04-17T01:38:28.004Z,11.90
2018-04-17T01:40:54.679Z,11.80
2018-04-17T01:43:21.318Z,11.70
2018-04-17T01:45:47.978Z,11.60
2018-04-17T01:48:14.638Z,11.60
2018-04-17T01:50:41.328Z,11.50
2018-04-17T01:53:08.072Z,11.60
2018-04-17T01:55:34.733Z,11.60
2018-04-17T01:58:01.404Z,11.60
2018-04-17T02:00:28.065Z,11.60
2018-04-17T02:02:55.478Z,11.70
2018-04-17T02:05:22.152Z,11.70
2018-04-17T02:07:49.554Z,11.70
2018-04-17T02:10:16.211Z,11.70
2018-04-17T02:12:42.897Z,11.80
2018-04-17T02:15:09.581Z,11.80
2018-04-17T02:17:36.276Z,11.80
2018-04-17T02:20:03.048Z,11.80
2018-04-17T02:22:29.721Z,11.80
2018-04-17T02:24:56.391Z,11.80
2018-04-17T02:27:23.046Z,11.80
2018-04-17T02:29:49.714Z,11.70
2018-04-17T02:32:16.500Z,11.60
2018-04-17T02:34:43.215Z,11.60
2018-04-17T02:37:09.907Z,11.60
2018-04-17T02:39:36.572Z,11.60
2018-04-17T02:42:03.293Z,11.60
2018-04-17T02:44:29.972Z,11.60
2018-04-17T02:46:56.694Z,11.60
2018-04-17T02:49:23.371Z,11.60
2018-04-17T02:51:50.819Z,11.50
2018-04-17T02:54:18.269Z,11.50
2018-04-17T02:56:45.684Z,11.50
2018-04-17T02:59:12.358Z,11.50
2018-04-17T03:01:39.790Z,11.30
2018-04-17T03:04:06.480Z,11.30
2018-04-17T03:06:33.145Z,11.30
2018-04-17T03:08:59.812Z,11.20
2018-04-17T03:11:26.488Z,11.20
2018-04-17T03:13:53.187Z,11.10
2018-04-17T03:16:19.842Z,11.20
2018-04-17T03:18:47.305Z,11.40
2018-04-17T03:21:14.772Z,11.40
2018-04-17T03:23:41.434Z,11.40
2018-04-17T03:26:08.143Z,11.40
2018-04-17T03:28:35.568Z,11.40
2018-04-17T03:31:02.235Z,11.40
2018-04-17T03:33:29.682Z,11.30
2018-04-17T03:35:57.125Z,11.20
2018-04-17T03:38:23.822Z,11.30
2018-04-17T03:40:51.227Z,11.20
2018-04-17T03:43:17.879Z,11.20
2018-04-17T03:45:45.311Z,11.00
2018-04-17T03:48:12.013Z,11.00
2018-04-17T03:50:38.683Z,11.00
2018-04-17T03:53:05.358Z,11.00
2018-04-17T03:55:32.055Z,11.10
2018-04-17T03:57:58.715Z,11.10
2018-04-17T04:00:26.132Z,11.10
2018-04-17T04:02:52.807Z,11.10
2018-04-17T04:05:20.215Z,11.10
2018-04-17T04:07:46.860Z,11.10
2018-04-17T04:10:13.521Z,11.10
2018-04-17T04:12:40.255Z,11.10
2018-04-17T04:15:06.987Z,11.10
2018-04-17T04:17:52.235Z,11.10
2018-04-17T04:20:37.224Z,11.20
2018-04-17T04:23:22.420Z,11.20
2018-04-17T04:26:08.180Z,11.20
2018-04-17T04:28:35.032Z,11.10
2018-04-17T04:31:01.822Z,11.10
2018-04-17T04:33:28.552Z,11.10
2018-04-17T04:35:55.241Z,11.10
2018-04-17T04:38:21.915Z,11.10
2018-04-17T04:40:49.404Z,10.90
2018-04-17T04:43:16.145Z,10.90
2018-04-17T04:45:42.955Z,10.90
2018-04-17T04:48:10.435Z,10.90
2018-04-17T04:50:37.160Z,10.90
2018-04-17T04:53:03.900Z,10.80
2018-04-17T04:55:30.627Z,10.80
2018-04-17T04:57:58.144Z,10.70
2018-04-17T05:00:24.908Z,10.70
2018-04-17T05:02:51.673Z,10.70
2018-04-17T05:05:19.150Z,10.70
2018-04-17T05:07:45.885Z,10.70
2018-04-17T05:10:12.660Z,10.70
2018-04-17T05:12:39.430Z,10.80
2018-04-17T05:15:06.187Z,10.80
2018-04-17T05:17:33.688Z,10.70
2018-04-17T05:20:00.364Z,10.70
2018-04-17T05:22:27.018Z,10.80
2018-04-17T05:24:54.431Z,10.80
2018-04-17T05:27:21.187Z,10.80
2018-04-17T05:29:47.946Z,11.00
2018-04-17T05:32:15.444Z,11.10
2018-04-17T05:34:42.204Z,11.10
2018-04-17T05:37:08.936Z,11.10
2018-04-17T05:39:35.622Z,11.20
2018-04-17T05:42:04.079Z,11.50
2018-04-17T05:44:30.778Z,11.50
2018-04-17T05:46:57.466Z,11.70
2018-04-17T05:49:24.132Z,12.00
2018-04-17T05:51:50.806Z,12.10
2018-04-17T05:54:17.474Z,12.20
2018-04-17T05:56:44.167Z,12.30
2018-04-17T05:59:10.871Z,12.30
2018-04-17T06:01:38.323Z,12.30
2018-04-17T06:04:05.737Z,12.40
2018-04-17T06:06:32.391Z,12.40
2018-04-17T06:08:59.073Z,12.50
2018-04-17T06:11:25.796Z,12.70
2018-04-17T06:13:53.206Z,13.00
2018-04-17T06:16:19.873Z,13.00
2018-04-17T06:18:46.556Z,13.00
2018-04-17T06:21:14.163Z,13.10
2018-04-17T06:23:40.864Z,13.20
2018-04-17T06:26:07.539Z,13.40
2018-04-17T06:28:34.216Z,13.80
2018-04-17T06:31:00.888Z,13.90
2018-04-17T06:33:27.578Z,13.80
2018-04-17T06:35:54.976Z,13.50
2018-04-17T06:38:21.649Z,13.50
2018-04-17T06:40:48.358Z,13.40
2018-04-17T06:43:15.099Z,13.30
2018-04-17T06:45:41.771Z,13.30
2018-04-17T06:48:08.431Z,13.30
2018-04-17T06:50:35.831Z,13.40
2018-04-17T06:53:02.499Z,13.40
2018-04-17T06:55:29.168Z,13.50
2018-04-17T06:57:55.932Z,13.50
2018-04-17T07:00:23.303Z,13.60
2018-04-17T07:02:49.971Z,13.60
2018-04-17T07:05:16.693Z,13.70
2018-04-17T07:07:43.353Z,13.80
2018-04-17T07:10:10.119Z,14.00
2018-04-17T07:12:36.804Z,14.20
2018-04-17T07:15:03.497Z,14.40
2018-04-17T07:17:30.191Z,14.60
2018-04-17T07:19:56.857Z,15.00
2018-04-17T07:22:24.299Z,15.20
2018-04-17T07:24:51.035Z,15.20
2018-04-17T07:27:17.731Z,15.30
2018-04-17T07:29:44.406Z,15.50
2018-04-17T07:32:11.072Z,15.60
2018-04-17T07:34:38.517Z,16.50
2018-04-17T07:37:05.177Z,16.50
2018-04-17T07:39:31.854Z,16.90
2018-04-17T07:41:58.506Z,17.30
2018-04-17T07:44:25.203Z,17.80
2018-04-17T07:47:10.961Z,18.00
2018-04-17T07:49:38.431Z,18.60
2018-04-17T07:52:05.164Z,18.60
2018-04-17T07:54:32.592Z,18.80
2018-04-17T07:56:59.259Z,18.80
2018-04-17T07:59:26.702Z,18.90
2018-04-17T08:01:53.395Z,18.90
2018-04-17T08:04:20.079Z,19.20
2018-04-17T08:06:47.511Z,19.90
2018-04-17T08:09:14.175Z,19.90
2018-04-17T08:11:41.591Z,20.10
2018-04-17T08:14:08.296Z,20.10
2018-04-17T08:16:34.976Z,20.10
2018-04-17T08:19:01.669Z,20.10
2018-04-17T08:21:28.359Z,20.20
2018-04-17T08:23:55.063Z,20.70
2018-04-17T08:26:21.786Z,20.90
2018-04-17T08:28:48.446Z,20.90
2018-04-17T08:31:15.157Z,21.00
2018-04-17T08:33:41.828Z,21.30
2018-04-17T08:36:08.604Z,21.30
2018-04-17T08:38:35.282Z,21.30
2018-04-17T08:41:01.971Z,21.70
2018-04-17T08:43:28.656Z,22.00
2018-04-17T08:45:55.331Z,22.40
2018-04-17T08:48:22.024Z,22.90
2018-04-17T08:50:48.691Z,23.10
2018-04-17T08:53:15.384Z,23.20
2018-04-17T08:55:42.809Z,22.80
2018-04-17T08:58:09.492Z,22.80
2018-04-17T09:00:36.183Z,22.90
2018-04-17T09:03:02.924Z,23.30
2018-04-17T09:05:29.622Z,23.40
2018-04-17T09:07:56.316Z,23.40
2018-04-17T09:10:22.988Z,23.40
2018-04-17T09:12:49.659Z,22.90
2018-04-17T09:15:16.319Z,22.70
2018-04-17T09:17:42.981Z,22.80
2018-04-17T09:20:10.386Z,23.10
2018-04-17T09:22:37.058Z,23.10
2018-04-17T09:25:03.795Z,23.20
2018-04-17T09:27:30.543Z,23.00
2018-04-17T09:29:57.311Z,22.90
2018-04-17T09:32:24.083Z,23.20
2018-04-17T09:34:50.834Z,23.40
2018-04-17T09:37:17.592Z,23.70
2018-04-17T09:39:44.381Z,23.80
2018-04-17T09:42:11.191Z,24.30
2018-04-17T09:44:38.626Z,24.30
2018-04-17T09:47:05.324Z,24.30
2018-04-17T09:49:32.019Z,24.40
2018-04-17T09:51:58.679Z,24.80
2018-04-17T09:54:26.111Z,25.00
2018-04-17T09:56:52.823Z,24.90
2018-04-17T09:59:19.560Z,25.00
2018-04-17T10:01:46.291Z,25.40
2018-04-17T10:04:13.019Z,25.30
2018-04-17T10:06:39.684Z,25.10
2018-04-17T10:09:06.521Z,25.30
2018-04-17T10:11:33.892Z,24.70
2018-04-17T10:14:00.586Z,24.70
2018-04-17T10:16:27.265Z,24.60
2018-04-17T10:18:53.946Z,24.20
2018-04-17T10:21:20.623Z,24.00
2018-04-17T10:23:47.463Z,23.80
2018-04-17T10:26:14.136Z,24.30
2018-04-17T10:28:40.808Z,24.50
2018-04-17T10:31:07.471Z,24.00
2018-04-17T10:33:34.159Z,24.10
2018-04-17T10:36:01.576Z,24.50
2018-04-17T10:38:28.264Z,24.50
2018-04-17T10:40:54.939Z,24.30
2018-04-17T10:43:21.611Z,24.40
2018-04-17T10:45:48.324Z,24.70
2018-04-17T10:48:15.012Z,24.90
2018-04-17T10:50:42.418Z,25.40
2018-04-17T10:53:09.098Z,25.40
2018-04-17T10:55:36.523Z,25.60
2018-04-17T10:58:03.208Z,25.60
2018-04-17T11:00:29.866Z,25.70
2018-04-17T11:02:56.567Z,25.80
2018-04-17T11:05:23.997Z,26.10
2018-04-17T11:07:50.711Z,26.10
2018-04-17T11:10:17.456Z,26.00
2018-04-17T11:12:44.133Z,26.00
2018-04-17T11:15:10.803Z,26.00
2018-04-17T11:17:37.496Z,25.80
2018-04-17T11:20:04.208Z,26.10
2018-04-17T11:22:30.893Z,26.10
2018-04-17T11:24:58.331Z,26.10
2018-04-17T11:27:25.013Z,26.10
2018-04-17T11:29:51.677Z,25.50
2018-04-17T11:32:18.370Z,25.20
2018-04-17T11:34:45.841Z,25.30
2018-04-17T11:37:12.509Z,25.30
2018-04-17T11:39:39.209Z,24.70
2018-04-17T11:42:06.656Z,23.40
2018-04-17T11:44:34.064Z,22.90
2018-04-17T11:47:07.391Z,22.90
2018-04-17T11:49:34.272Z,22.40
2018-04-17T11:52:00.939Z,22.60
2018-04-17T11:54:27.669Z,23.50
2018-04-17T11:56:54.349Z,24.70
2018-04-17T11:59:22.146Z,25.50
2018-04-17T12:01:49.085Z,26.40
2018-04-17T12:04:15.836Z,26.20
2018-04-17T12:06:42.549Z,26.60
2018-04-17T12:09:09.998Z,26.80
2018-04-17T12:11:37.423Z,26.50
2018-04-17T12:14:04.128Z,26.50
2018-04-17T12:16:30.808Z,26.10
2018-04-17T12:18:57.528Z,24.80
2018-04-17T12:21:24.202Z,23.80
2018-04-17T12:23:50.863Z,23.30
2018-04-17T12:26:17.580Z,22.80
2018-04-17T12:28:44.299Z,22.30
2018-04-17T12:31:11.010Z,22.60
2018-04-17T12:33:37.753Z,23.30
2018-04-17T12:36:04.434Z,24.30
2018-04-17T12:38:31.872Z,24.20
2018-04-17T12:40:58.584Z,24.20
2018-04-17T12:43:25.309Z,23.40
2018-04-17T12:45:51.991Z,22.40
2018-04-17T12:48:18.676Z,21.40
2018-04-17T12:50:45.379Z,20.90
2018-04-17T12:53:12.099Z,20.40
2018-04-17T12:55:38.812Z,20.20
2018-04-17T12:58:05.544Z,20.00
2018-04-17T13:00:32.991Z,20.20
2018-04-17T13:02:59.656Z,20.10
2018-04-17T13:05:26.348Z,20.30
2018-04-17T13:07:53.789Z,20.70
2018-04-17T13:10:21.061Z,20.70
2018-04-17T13:12:47.743Z,21.30
2018-04-17T13:15:14.412Z,22.40
2018-04-17T13:17:41.075Z,23.20
2018-04-17T13:20:07.768Z,23.50
2018-04-17T13:22:34.490Z,23.90
2018-04-17T13:25:01.189Z,24.60
2018-04-17T13:27:28.603Z,25.70
2018-04-17T13:29:55.291Z,25.60
2018-04-17T13:32:21.971Z,25.80
2018-04-17T13:34:48.651Z,26.00
2018-04-17T13:37:15.329Z,26.00
2018-04-17T13:39:42.011Z,25.80
2018-04-17T13:42:08.692Z,25.80
2018-04-17T13:44:35.352Z,25.90
2018-04-17T13:47:02.069Z,25.80
2018-04-17T13:49:28.764Z,25.00
2018-04-17T13:51:55.451Z,24.40
2018-04-17T13:54:22.136Z,24.20
2018-04-17T13:56:48.914Z,24.40
2018-04-17T13:59:15.801Z,24.50
2018-04-17T14:01:42.481Z,24.80
2018-04-17T14:04:09.900Z,24.40
2018-04-17T14:06:36.575Z,24.40
2018-04-17T14:09:05.868Z,23.90
2018-04-17T14:11:32.547Z,23.90
2018-04-17T14:13:59.242Z,23.50
2018-04-17T14:16:26.645Z,23.90
2018-04-17T14:18:53.300Z,23.80
2018-04-17T14:21:19.962Z,24.50
2018-04-17T14:23:46.635Z,24.70
2018-04-17T14:26:13.295Z,24.70
2018-04-17T14:28:39.982Z,24.50
2018-04-17T14:31:06.690Z,24.70
2018-04-17T14:33:33.360Z,24.20
2018-04-17T14:36:00.788Z,22.80
2018-04-17T14:38:27.518Z,22.80
2018-04-17T14:40:54.192Z,22.40
2018-04-17T14:43:21.697Z,21.90
2018-04-17T14:45:48.473Z,22.00
2018-04-17T14:48:15.211Z,21.80
2018-04-17T14:50:42.758Z,22.10
2018-04-17T14:53:09.496Z,22.10
2018-04-17T14:55:36.308Z,22.60
2018-04-17T14:58:03.212Z,22.80
2018-04-17T15:00:29.940Z,23.10
2018-04-17T15:02:56.703Z,23.00
2018-04-17T15:05:24.206Z,22.30
2018-04-17T15:07:50.971Z,22.30
2018-04-17T15:10:17.758Z,22.10
2018-04-17T15:12:44.543Z,21.90
2018-04-17T15:15:11.313Z,21.90
2018-04-17T15:17:38.114Z,22.50
2018-04-17T15:20:04.883Z,23.20
2018-04-17T15:22:31.708Z,23.40
2018-04-17T15:24:58.537Z,23.30
2018-04-17T15:27:25.280Z,23.10
2018-04-17T15:29:52.024Z,22.90
2018-04-17T15:32:18.783Z,22.90
2018-04-17T15:34:45.598Z,22.80
2018-04-17T15:37:12.411Z,22.90
2018-04-17T15:39:39.151Z,23.10
2018-04-17T15:42:05.933Z,23.50
2018-04-17T15:44:32.671Z,23.30
2018-04-17T15:46:59.429Z,23.20
2018-04-17T15:49:26.166Z,23.40
2018-04-17T15:51:52.866Z,23.50
2018-04-17T15:54:19.576Z,23.30
2018-04-17T15:56:46.294Z,23.10
2018-04-17T15:59:13.024Z,23.20
2018-04-17T16:01:39.739Z,23.10
2018-04-17T16:04:06.444Z,23.00
2018-04-17T16:06:33.119Z,23.10
2018-04-17T16:08:59.811Z,22.90
2018-04-17T16:11:26.617Z,22.80
2018-04-17T16:13:53.384Z,22.60
2018-04-17T16:16:20.204Z,22.30
2018-04-17T16:18:47.721Z,22.00
2018-04-17T16:21:14.514Z,21.90
2018-04-17T16:23:45.624Z,21.90
2018-04-17T16:26:12.467Z,21.80
2018-04-17T16:28:39.220Z,21.60
2018-04-17T16:31:06.020Z,21.50
2018-04-17T16:33:32.805Z,21.20
2018-04-17T16:36:00.543Z,21.10
2018-04-17T16:38:27.317Z,21.00
2018-04-17T16:40:54.875Z,20.80
2018-04-17T16:43:22.352Z,20.70
2018-04-17T16:45:49.159Z,20.70
2018-04-17T16:48:16.005Z,20.60
2018-04-17T16:50:42.751Z,20.50
2018-04-17T16:53:10.299Z,20.40
2018-04-17T16:55:37.062Z,20.40
2018-04-17T16:58:04.582Z,20.20
2018-04-17T17:00:31.341Z,20.20
2018-04-17T17:02:58.914Z,20.10
2018-04-17T17:05:26.534Z,20.00
2018-04-17T17:07:53.575Z,20.00
2018-04-17T17:10:20.377Z,19.90
2018-04-17T17:12:47.134Z,19.80
2018-04-17T17:15:13.898Z,19.80
2018-04-17T17:17:40.675Z,19.70
2018-04-17T17:20:08.178Z,19.60
2018-04-17T17:22:34.927Z,19.60
2018-04-17T17:25:01.717Z,19.50
2018-04-17T17:27:29.265Z,19.40
2018-04-17T17:29:56.131Z,19.40
2018-04-17T17:32:23.631Z,19.30
2018-04-17T17:34:50.416Z,19.30
2018-04-17T17:37:17.913Z,19.20
2018-04-17T17:39:44.626Z,19.20
2018-04-17T17:42:12.103Z,19.10
2018-04-17T17:44:38.797Z,19.10
2018-04-17T17:47:05.492Z,19.00
2018-04-17T17:49:32.305Z,19.00
2018-04-17T17:51:59.049Z,18.90
2018-04-17T17:54:26.471Z,18.80
2018-04-17T17:56:53.237Z,18.70
2018-04-17T17:59:20.918Z,18.50
2018-04-17T18:01:47.668Z,18.40
2018-04-17T18:04:14.416Z,18.30
2018-04-17T18:06:41.157Z,18.20
2018-04-17T18:09:07.959Z,18.10
2018-04-17T18:11:34.719Z,18.10
2018-04-17T18:14:01.445Z,18.00
2018-04-17T18:16:28.178Z,18.00
2018-04-17T18:18:54.933Z,17.90
2018-04-17T18:21:22.454Z,17.80
2018-04-17T18:23:49.972Z,17.70
2018-04-17T18:26:16.786Z,17.70
2018-04-17T18:28:43.571Z,17.70
2018-04-17T18:31:10.354Z,17.80
2018-04-17T18:33:37.858Z,17.70
2018-04-17T18:36:04.604Z,17.70
2018-04-17T18:38:31.376Z,17.60
2018-04-17T18:40:58.122Z,17.40
2018-04-17T18:43:25.582Z,17.00
2018-04-17T18:45:53.072Z,16.80
2018-04-17T18:48:19.771Z,16.80
2018-04-17T18:50:47.231Z,16.60
2018-04-17T18:53:15.462Z,16.50
2018-04-17T18:55:42.241Z,16.50
2018-04-17T18:58:09.676Z,16.40
2018-04-17T19:00:36.399Z,16.40
2018-04-17T19:03:03.170Z,16.40
2018-04-17T19:05:29.880Z,16.40
2018-04-17T19:07:56.612Z,16.40
2018-04-17T19:10:24.188Z,16.60
2018-04-17T19:12:50.896Z,16.60
2018-04-17T19:15:17.615Z,16.80
2018-04-17T19:17:44.295Z,16.90
2018-04-17T19:20:11.024Z,17.00
2018-04-17T19:22:37.709Z,16.90
2018-04-17T19:25:05.640Z,16.70
2018-04-17T19:27:34.124Z,16.70
2018-04-17T19:30:00.840Z,16.80
2018-04-17T19:32:27.606Z,16.80
2018-04-17T19:34:55.235Z,16.80
2018-04-17T19:37:21.995Z,16.80
2018-04-17T19:39:48.797Z,16.60
2018-04-17T19:42:15.543Z,16.60
2018-04-17T19:44:43.528Z,16.50
2018-04-17T19:47:10.303Z,16.30
2018-04-17T19:49:36.999Z,16.10
2018-04-17T19:52:03.739Z,16.00
2018-04-17T19:54:30.407Z,15.90
2018-04-17T19:56:57.195Z,15.90
2018-04-17T19:59:23.941Z,15.90
2018-04-17T20:01:50.735Z,15.90
2018-04-17T20:04:17.524Z,16.20
2018-04-17T20:06:44.358Z,16.20
2018-04-17T20:09:11.130Z,16.20
2018-04-17T20:11:37.927Z,16.10
2018-04-17T20:14:04.740Z,16.00
2018-04-17T20:16:31.541Z,15.80
2018-04-17T20:18:58.352Z,15.60
2018-04-17T20:21:25.875Z,15.60
2018-04-17T20:23:52.660Z,15.60
2018-04-17T20:26:19.399Z,15.50
2018-04-17T20:28:46.268Z,15.60
2018-04-17T20:31:13.082Z,15.50
2018-04-17T20:33:39.805Z,15.50
2018-04-17T20:36:07.318Z,15.40
2018-04-17T20:38:34.100Z,15.40
2018-04-17T20:41:00.865Z,15.40
2018-04-17T20:43:27.698Z,15.30
2018-04-17T20:45:55.207Z,15.20
2018-04-17T20:48:21.960Z,15.20
2018-04-17T20:50:48.760Z,15.10
2018-04-17T20:53:15.612Z,15.00
2018-04-17T20:55:42.436Z,14.90
2018-04-17T20:58:09.257Z,15.30
2018-04-17T21:00:36.810Z,15.70
2018-04-17T21:03:03.593Z,15.70
2018-04-17T21:05:30.455Z,15.80
2018-04-17T21:07:57.244Z,15.70
2018-04-17T21:10:24.748Z,15.60
2018-04-17T21:12:51.527Z,15.60
2018-04-17T21:15:19.813Z,15.30
2018-04-17T21:17:47.317Z,15.30
2018-04-17T21:20:14.100Z,15.20
2018-04-17T21:22:41.663Z,15.10
2018-04-17T21:25:09.212Z,15.10
2018-04-17T21:27:35.967Z,15.10
2018-04-17T21:30:04.388Z,14.80
2018-04-17T21:32:32.175Z,14.80
2018-04-17T21:34:58.902Z,14.80
2018-04-17T21:37:25.687Z,14.70
2018-04-17T21:39:53.248Z,14.40
2018-04-17T21:42:20.003Z,14.40
2018-04-17T21:44:46.730Z,14.30
2018-04-17T21:47:14.208Z,14.30
2018-04-17T21:49:40.955Z,14.30
2018-04-17T21:52:08.003Z,14.30
2018-04-17T21:54:34.850Z,14.40
2018-04-17T21:57:01.686Z,14.40
2018-04-17T21:59:28.538Z,14.50
2018-04-17T22:01:55.342Z,14.50
2018-04-17T22:04:22.853Z,14.30
2018-04-17T22:06:49.667Z,14.30
2018-04-17T22:09:17.080Z,14.20
2018-04-17T22:11:44.647Z,13.90
2018-04-17T22:14:12.183Z,13.90
2018-04-17T22:16:38.980Z,13.90
2018-04-17T22:19:05.793Z,14.00
2018-04-17T22:21:33.380Z,14.20
2018-04-17T22:24:00.207Z,14.20
2018-04-17T22:26:27.040Z,14.30
2018-04-17T22:28:53.850Z,14.30
2018-04-17T22:31:20.715Z,14.20
2018-04-17T22:33:48.275Z,14.10
2018-04-17T22:36:15.118Z,14.10
2018-04-17T22:38:41.955Z,14.10
2018-04-17T22:41:08.735Z,14.10
2018-04-17T22:43:35.588Z,14.10
2018-04-17T22:46:02.390Z,14.10
2018-04-17T22:48:29.227Z,14.00
2018-04-17T22:50:56.055Z,14.00
2018-04-17T22:53:23.615Z,14.00
2018-04-17T22:55:51.265Z,14.00
2018-04-17T22:58:18.116Z,14.00
2018-04-17T23:00:45.643Z,13.90
2018-04-17T23:03:12.445Z,13.90
2018-04-17T23:05:39.245Z,13.90
2018-04-17T23:08:06.123Z,13.90
2018-04-17T23:10:32.935Z,13.90
2018-04-17T23:12:59.746Z,13.90
2018-04-17T23:15:27.483Z,13.80
2018-04-17T23:17:54.235Z,13.80
2018-04-17T23:20:20.999Z,13.90
2018-04-17T23:22:47.810Z,14.00
2018-04-17T23:25:14.522Z,14.10
2018-04-17T23:27:42.025Z,14.30
2018-04-17T23:30:08.775Z,14.30
2018-04-17T23:32:35.545Z,14.40
2018-04-17T23:35:03.058Z,14.40
2018-04-17T23:37:29.778Z,14.30
2018-04-17T23:39:56.505Z,14.30
2018-04-17T23:42:23.271Z,14.20
2018-04-17T23:44:50.008Z,14.20
2018-04-17T23:47:16.722Z,14.20
2018-04-17T23:49:43.501Z,14.00
2018-04-17T23:52:10.263Z,13.80
2018-04-17T23:54:37.352Z,13.90
2018-04-17T23:57:04.083Z,13.90
2018-04-17T23:59:30.890Z,13.90
